createdAt,value
2022-11-16T00:00:14.306Z,2.00
2022-11-16T00:03:38.825Z,1.70
2022-11-16T00:07:02.851Z,1.98
2022-11-16T00:10:25.917Z,1.92
2022-11-16T00:13:48.819Z,1.92
2022-11-16T00:17:11.765Z,1.77
2022-11-16T00:20:36.039Z,1.60
2022-11-16T00:23:59.576Z,2.03
2022-11-16T00:27:22.456Z,2.08
2022-11-16T00:30:45.420Z,1.92
2022-11-16T00:34:08.329Z,1.50
2022-11-16T00:37:32.646Z,1.38
2022-11-16T00:40:55.584Z,1.52
2022-11-16T00:44:19.026Z,1.45
2022-11-16T00:47:42.045Z,1.45
2022-11-16T00:51:05.139Z,2.45
2022-11-16T00:54:29.624Z,1.60
2022-11-16T00:57:52.687Z,1.65
2022-11-16T01:01:17.264Z,1.90
2022-11-16T01:04:40.554Z,1.73
2022-11-16T01:08:03.529Z,1.63
2022-11-16T01:11:45.880Z,1.98
2022-11-16T01:15:09.951Z,1.17
2022-11-16T01:18:33.810Z,1.63
2022-11-16T01:21:57.169Z,1.20
2022-11-16T01:25:20.477Z,1.63
2022-11-16T01:28:44.886Z,1.52
2022-11-16T01:32:09.142Z,1.42
2022-11-16T01:35:32.148Z,1.88
2022-11-16T01:38:55.690Z,1.60
2022-11-16T01:42:25.700Z,1.40
2022-11-16T01:45:54.160Z,1.15
2022-11-16T01:49:20.556Z,2.63
2022-11-16T01:52:51.206Z,3.25
2022-11-16T01:56:15.795Z,2.35
2022-11-16T01:59:46.803Z,2.05
2022-11-16T02:03:14.887Z,2.70
2022-11-16T02:06:58.320Z,2.67
2022-11-16T02:10:38.580Z,2.40
2022-11-16T02:14:13.759Z,3.05
2022-11-16T02:17:45.920Z,3.03
2022-11-16T02:21:29.724Z,2.50
2022-11-16T02:25:01.355Z,2.90
2022-11-16T02:28:38.769Z,2.92
2022-11-16T02:32:06.141Z,2.95
2022-11-16T02:35:34.012Z,2.35
2022-11-16T02:39:05.941Z,2.58
2022-11-16T02:42:35.347Z,3.20
2022-11-16T02:46:04.905Z,2.35
2022-11-16T02:49:32.103Z,2.60
2022-11-16T02:52:55.676Z,2.70
2022-11-16T02:56:20.651Z,2.67
2022-11-16T02:59:47.796Z,2.42
2022-11-16T03:03:21.960Z,1.85
2022-11-16T03:06:49.611Z,2.47
2022-11-16T03:10:33.675Z,2.90
2022-11-16T03:14:04.376Z,2.40
2022-11-16T03:17:31.763Z,2.30
2022-11-16T03:21:04.520Z,2.30
2022-11-16T03:24:29.076Z,2.85
2022-11-16T03:27:58.801Z,3.00
2022-11-16T03:31:27.976Z,1.92
2022-11-16T03:34:57.761Z,2.42
2022-11-16T03:38:25.630Z,2.40
2022-11-16T03:41:51.674Z,2.50
2022-11-16T03:45:15.564Z,2.30
2022-11-16T03:48:41.271Z,3.05
2022-11-16T03:52:16.591Z,2.22
2022-11-16T03:55:40.099Z,2.67
2022-11-16T03:59:05.460Z,2.78
2022-11-16T04:02:28.416Z,3.38
2022-11-16T04:06:11.514Z,2.42
2022-11-16T04:09:52.224Z,2.60
2022-11-16T04:13:35.190Z,2.45
2022-11-16T04:17:17.596Z,2.70
2022-11-16T04:20:57.964Z,2.22
2022-11-16T04:24:24.566Z,2.10
2022-11-16T04:28:05.828Z,2.35
2022-11-16T04:31:46.469Z,2.47
2022-11-16T04:35:43.400Z,2.53
2022-11-16T04:39:07.426Z,2.70
2022-11-16T04:42:31.214Z,2.20
2022-11-16T04:46:11.552Z,2.25
2022-11-16T04:49:36.049Z,2.22
2022-11-16T04:53:01.120Z,2.30
2022-11-16T04:56:25.420Z,2.40
2022-11-16T04:59:48.903Z,2.40
2022-11-16T05:03:11.878Z,2.58
2022-11-16T05:06:35.298Z,2.60
2022-11-16T05:09:59.604Z,2.35
2022-11-16T05:13:23.417Z,2.58
2022-11-16T05:16:48.691Z,2.00
2022-11-16T05:20:29.908Z,2.40
2022-11-16T05:24:15.119Z,1.98
2022-11-16T05:27:39.491Z,2.15
2022-11-16T05:31:02.520Z,2.67
2022-11-16T05:34:28.100Z,2.35
2022-11-16T05:37:51.166Z,1.80
2022-11-16T05:41:14.154Z,1.90
2022-11-16T05:44:39.027Z,2.00
2022-11-16T05:48:02.510Z,2.70
2022-11-16T05:51:25.911Z,2.50
2022-11-16T05:54:50.400Z,2.85
2022-11-16T05:58:13.553Z,13.32
2022-11-16T06:01:38.439Z,8.90
2022-11-16T06:05:02.024Z,8.07
2022-11-16T06:08:25.639Z,7.85
2022-11-16T06:11:50.249Z,6.78
2022-11-16T06:15:13.516Z,5.88
2022-11-16T06:18:40.945Z,5.80
2022-11-16T06:22:04.577Z,6.72
2022-11-16T06:25:28.224Z,5.95
2022-11-16T06:28:51.192Z,5.95
2022-11-16T06:32:14.618Z,7.03
2022-11-16T06:35:39.469Z,6.10
2022-11-16T06:39:02.568Z,6.28
2022-11-16T06:42:30.021Z,5.53
2022-11-16T06:45:55.478Z,6.70
2022-11-16T06:49:18.591Z,5.93
2022-11-16T06:52:43.915Z,6.88
2022-11-16T06:56:08.509Z,5.40
2022-11-16T06:59:37.040Z,4.70
2022-11-16T07:03:00.073Z,4.57
2022-11-16T07:06:25.324Z,5.28
2022-11-16T07:09:49.607Z,4.90
2022-11-16T07:13:12.829Z,4.40
2022-11-16T07:16:36.605Z,4.03
2022-11-16T07:20:00.729Z,5.60
2022-11-16T07:23:25.091Z,5.18
2022-11-16T07:26:49.327Z,5.28
2022-11-16T07:30:16.677Z,5.00
2022-11-16T07:33:52.372Z,5.28
2022-11-16T07:37:38.520Z,5.05
2022-11-16T07:41:03.061Z,4.25
2022-11-16T07:44:28.827Z,5.30
2022-11-16T07:48:02.197Z,4.32
2022-11-16T07:51:48.365Z,5.35
2022-11-16T07:55:37.439Z,4.38
2022-11-16T07:59:01.432Z,4.70
2022-11-16T08:02:28.983Z,4.68
2022-11-16T08:06:00.020Z,5.00
2022-11-16T08:09:23.177Z,4.57
2022-11-16T08:12:47.345Z,3.78
2022-11-16T08:16:13.259Z,4.03
2022-11-16T08:19:39.369Z,4.05
2022-11-16T08:23:03.668Z,4.03
2022-11-16T08:26:30.295Z,3.42
2022-11-16T08:29:58.717Z,4.30
2022-11-16T08:33:23.596Z,3.90
2022-11-16T08:36:48.071Z,4.50
2022-11-16T08:40:12.420Z,3.88
2022-11-16T08:43:39.388Z,3.97
2022-11-16T08:47:03.553Z,3.47
2022-11-16T08:51:09.852Z,4.32
2022-11-16T08:54:21.875Z,3.15
2022-11-16T08:57:45.452Z,4.75
2022-11-16T09:01:11.012Z,3.85
2022-11-16T09:04:37.014Z,2.78
2022-11-16T09:08:00.280Z,4.13
2022-11-16T09:11:26.332Z,3.10
2022-11-16T09:14:49.247Z,4.07
2022-11-16T09:18:12.167Z,3.42
2022-11-16T09:21:36.387Z,3.40
2022-11-16T09:24:59.318Z,3.90
2022-11-16T09:28:23.829Z,3.25
2022-11-16T09:31:46.738Z,3.38
2022-11-16T09:35:10.576Z,3.70
2022-11-16T09:38:54.305Z,3.28
2022-11-16T09:42:47.002Z,3.65
2022-11-16T09:46:21.665Z,3.40
2022-11-16T09:49:51.594Z,2.88
2022-11-16T09:53:27.584Z,2.75
2022-11-16T09:56:54.321Z,2.75
2022-11-16T10:00:22.678Z,3.38
2022-11-16T10:03:52.156Z,2.92
2022-11-16T10:07:17.523Z,2.47
2022-11-16T10:10:46.443Z,2.83
2022-11-16T10:14:35.567Z,2.83
2022-11-16T10:18:20.779Z,2.33
2022-11-16T10:21:55.964Z,3.05
2022-11-16T10:25:23.076Z,2.75
2022-11-16T10:29:01.020Z,2.47
2022-11-16T10:32:28.764Z,2.75
2022-11-16T10:35:54.078Z,3.20
2022-11-16T10:39:20.286Z,2.00
2022-11-16T10:42:43.271Z,2.58
2022-11-16T10:46:15.392Z,3.00
2022-11-16T10:49:45.212Z,2.72
2022-11-16T10:53:13.704Z,3.97
2022-11-16T10:56:41.381Z,2.55
2022-11-16T11:00:08.620Z,2.53
2022-11-16T11:03:34.443Z,2.38
2022-11-16T11:07:00.011Z,3.03
2022-11-16T11:10:28.711Z,2.20
2022-11-16T11:14:10.795Z,2.08
2022-11-16T11:17:35.188Z,2.38
2022-11-16T11:21:10.128Z,1.92
2022-11-16T11:24:48.771Z,2.10
2022-11-16T11:28:20.908Z,2.17
2022-11-16T11:31:48.347Z,2.10
2022-11-16T11:35:24.583Z,2.38
2022-11-16T11:38:58.952Z,2.67
2022-11-16T11:42:24.032Z,2.63
2022-11-16T11:45:53.126Z,2.58
2022-11-16T11:49:22.651Z,1.92
2022-11-16T11:52:55.998Z,1.95
2022-11-16T11:56:19.646Z,2.47
2022-11-16T11:59:42.985Z,2.63
2022-11-16T12:03:40.477Z,2.05
2022-11-16T12:07:16.984Z,1.98
2022-11-16T12:10:46.053Z,2.83
2022-11-16T12:14:27.675Z,2.75
2022-11-16T12:17:58.696Z,2.15
2022-11-16T12:21:30.340Z,2.45
2022-11-16T12:25:10.666Z,2.33
2022-11-16T12:28:52.348Z,2.40
2022-11-16T12:32:27.139Z,2.08
2022-11-16T12:35:57.933Z,2.33
2022-11-16T12:39:25.213Z,2.08
2022-11-16T12:42:58.998Z,2.53
2022-11-16T12:46:29.568Z,2.25
2022-11-16T12:50:15.512Z,2.20
2022-11-16T12:53:55.723Z,1.92
2022-11-16T12:57:26.066Z,2.70
2022-11-16T13:01:02.548Z,1.90
2022-11-16T13:04:31.109Z,1.50
2022-11-16T13:07:58.352Z,2.42
2022-11-16T13:11:25.554Z,1.88
2022-11-16T13:14:49.632Z,2.40
2022-11-16T13:18:17.720Z,1.90
2022-11-16T13:21:48.731Z,1.88
2022-11-16T13:25:18.449Z,2.33
2022-11-16T13:28:51.637Z,1.92
2022-11-16T13:32:20.629Z,2.60
2022-11-16T13:35:45.016Z,2.28
2022-11-16T13:39:09.029Z,2.17
2022-11-16T13:42:34.047Z,2.75
2022-11-16T13:46:00.204Z,1.48
2022-11-16T13:49:30.809Z,2.40
2022-11-16T13:56:50.577Z,1.73
2022-11-16T14:00:23.669Z,2.45
2022-11-16T14:03:47.631Z,2.08
2022-11-16T14:07:32.108Z,2.88
2022-11-16T14:11:03.178Z,2.03
2022-11-16T14:15:03.425Z,2.40
2022-11-16T14:18:37.092Z,2.45
2022-11-16T14:22:07.805Z,2.30
2022-11-16T14:25:38.289Z,2.35
2022-11-16T14:29:36.988Z,1.90
2022-11-16T14:33:00.184Z,2.13
2022-11-16T14:36:38.478Z,2.35
2022-11-16T14:40:05.620Z,2.38
2022-11-16T14:43:32.440Z,1.75
2022-11-16T14:46:57.357Z,2.08
2022-11-16T14:50:22.837Z,2.03
2022-11-16T14:53:49.836Z,2.22
2022-11-16T14:57:19.272Z,1.67
2022-11-16T15:00:42.375Z,2.28
2022-11-16T15:04:09.764Z,2.15
2022-11-16T15:07:32.805Z,2.10
2022-11-16T15:10:55.889Z,1.75
2022-11-16T15:14:21.617Z,2.58
2022-11-16T15:17:46.699Z,2.58
2022-11-16T15:21:23.348Z,3.22
2022-11-16T15:24:55.859Z,1.95
2022-11-16T15:28:22.457Z,2.20
2022-11-16T15:31:45.660Z,2.42
2022-11-16T15:35:14.820Z,2.40
2022-11-16T15:38:39.289Z,2.20
2022-11-16T15:42:04.350Z,2.35
2022-11-16T15:45:29.279Z,3.40
2022-11-16T15:48:52.552Z,2.28
2022-11-16T15:52:35.479Z,2.60
2022-11-16T15:56:00.154Z,2.28
2022-11-16T15:59:27.788Z,3.00
2022-11-16T16:02:52.228Z,2.03
2022-11-16T16:06:16.605Z,2.45
2022-11-16T16:09:41.245Z,2.08
2022-11-16T16:13:26.140Z,2.25
2022-11-16T16:16:51.206Z,2.53
2022-11-16T16:20:19.077Z,2.65
2022-11-16T16:23:46.457Z,1.80
2022-11-16T16:27:27.727Z,1.77
2022-11-16T16:30:53.708Z,1.95
2022-11-16T16:34:18.134Z,2.03
2022-11-16T16:37:41.099Z,2.50
2022-11-16T16:41:06.097Z,2.05
2022-11-16T16:44:30.311Z,2.40
2022-11-16T16:47:54.827Z,3.28
2022-11-16T16:51:17.835Z,4.07
2022-11-16T16:54:41.277Z,4.70
2022-11-16T16:58:04.273Z,4.18
2022-11-16T17:01:27.253Z,3.97
2022-11-16T17:04:51.533Z,4.75
2022-11-16T17:08:14.433Z,4.63
2022-11-16T17:11:37.511Z,3.90
2022-11-16T17:15:00.483Z,4.00
2022-11-16T17:18:23.863Z,4.45
2022-11-16T17:21:48.179Z,3.42
2022-11-16T17:25:11.541Z,3.60
2022-11-16T17:28:34.794Z,3.85
2022-11-16T17:31:57.697Z,3.47
2022-11-16T17:35:20.837Z,3.60
2022-11-16T17:38:45.502Z,3.95
2022-11-16T17:42:08.425Z,4.65
2022-11-16T17:45:31.872Z,2.85
2022-11-16T17:48:54.791Z,3.75
2022-11-16T17:52:17.688Z,3.55
2022-11-16T17:55:43.576Z,3.78
2022-11-16T17:59:06.531Z,2.92
2022-11-16T18:02:29.454Z,3.38
2022-11-16T18:05:52.815Z,3.70
2022-11-16T18:09:15.792Z,3.25
2022-11-16T18:12:40.133Z,3.40
2022-11-16T18:16:05.080Z,3.60
2022-11-16T18:19:28.014Z,4.53
2022-11-16T18:22:50.962Z,2.90
2022-11-16T18:26:16.193Z,2.55
2022-11-16T18:29:40.508Z,3.63
2022-11-16T18:33:03.458Z,4.00
2022-11-16T18:36:26.399Z,3.35
2022-11-16T18:39:49.291Z,3.78
2022-11-16T18:43:13.538Z,3.20
2022-11-16T18:46:37.777Z,2.30
2022-11-16T18:50:00.905Z,2.85
2022-11-16T18:53:23.823Z,2.42
2022-11-16T18:56:47.161Z,2.97
2022-11-16T19:00:12.051Z,2.33
2022-11-16T19:03:36.950Z,2.80
2022-11-16T19:07:00.239Z,2.78
2022-11-16T19:10:23.194Z,2.85
2022-11-16T19:13:46.859Z,2.63
2022-11-16T19:17:10.140Z,2.95
2022-11-16T19:20:34.480Z,2.67
2022-11-16T19:23:58.281Z,2.40
2022-11-16T19:27:21.165Z,3.60
2022-11-16T19:30:44.177Z,2.97
2022-11-16T19:34:08.668Z,2.70
2022-11-16T19:37:32.983Z,3.53
2022-11-16T19:40:55.912Z,2.38
2022-11-16T19:44:18.869Z,2.40
2022-11-16T19:47:41.788Z,2.78
2022-11-16T19:51:06.308Z,2.40
2022-11-16T19:54:30.725Z,3.13
2022-11-16T19:57:53.614Z,3.58
2022-11-16T20:01:18.783Z,2.88
2022-11-16T20:04:41.818Z,2.67
2022-11-16T20:08:04.856Z,2.42
2022-11-16T20:11:31.203Z,3.42
2022-11-16T20:14:54.162Z,2.42
2022-11-16T20:18:17.144Z,3.00
2022-11-16T20:21:41.587Z,3.00
2022-11-16T20:25:04.642Z,2.83
2022-11-16T20:28:28.961Z,2.85
2022-11-16T20:31:51.900Z,3.35
2022-11-16T20:35:18.947Z,2.75
2022-11-16T20:38:42.264Z,3.05
2022-11-16T20:42:05.358Z,2.60
2022-11-16T20:45:32.688Z,3.03
2022-11-16T20:48:57.099Z,2.53
2022-11-16T20:52:20.283Z,2.83
2022-11-16T20:55:45.671Z,2.55
2022-11-16T20:59:08.899Z,4.10
2022-11-16T21:02:33.153Z,2.95
2022-11-16T21:05:56.094Z,2.90
2022-11-16T21:09:22.711Z,3.03
2022-11-16T21:13:03.855Z,3.75
2022-11-16T21:16:26.972Z,3.30
2022-11-16T21:20:20.222Z,3.15
2022-11-16T21:23:36.269Z,3.33
2022-11-16T21:26:59.368Z,3.35
2022-11-16T21:30:22.395Z,3.15
2022-11-16T21:33:45.936Z,3.22
2022-11-16T21:37:12.143Z,3.35
2022-11-16T21:40:35.061Z,3.83
2022-11-16T21:43:58.358Z,2.95
2022-11-16T21:47:21.453Z,3.40
2022-11-16T21:50:44.933Z,2.60
2022-11-16T21:54:09.167Z,3.30
2022-11-16T21:57:37.995Z,3.75
2022-11-16T22:01:02.676Z,3.20
2022-11-16T22:04:43.366Z,2.78
2022-11-16T22:08:06.705Z,3.60
2022-11-16T22:11:30.977Z,3.90
2022-11-16T22:14:53.892Z,4.30
2022-11-16T22:18:16.876Z,4.13
2022-11-16T22:21:39.804Z,3.35
2022-11-16T22:25:02.709Z,4.55
2022-11-16T22:28:27.261Z,4.05
2022-11-16T22:31:50.122Z,5.15
2022-11-16T22:35:13.292Z,4.10
2022-11-16T22:38:36.801Z,4.63
2022-11-16T22:41:59.693Z,4.28
2022-11-16T22:45:24.869Z,4.72
2022-11-16T22:48:48.020Z,4.22
2022-11-16T22:52:10.965Z,4.32
2022-11-16T22:55:36.386Z,3.92
2022-11-16T22:59:00.589Z,3.97
2022-11-16T23:02:24.906Z,4.35
2022-11-16T23:05:47.809Z,3.72
2022-11-16T23:09:10.724Z,4.13
2022-11-16T23:12:51.043Z,4.35
2022-11-16T23:16:13.950Z,4.60
2022-11-16T23:19:55.770Z,4.32
2022-11-16T23:23:37.144Z,4.20
2022-11-16T23:27:21.019Z,3.60
2022-11-16T23:30:43.885Z,4.30
2022-11-16T23:34:06.956Z,3.90
2022-11-16T23:37:31.204Z,3.95
2022-11-16T23:40:55.363Z,3.42
2022-11-16T23:44:17.302Z,3.95
2022-11-16T23:47:40.191Z,4.20
2022-11-16T23:51:03.112Z,4.07
2022-11-16T23:54:27.352Z,3.75
2022-11-16T23:57:50.391Z,3.17
